createdAt,value
2022-10-11T00:02:16.748Z,3.95
2022-10-11T00:05:18.660Z,3.30
2022-10-11T00:08:20.522Z,2.80
2022-10-11T00:11:22.376Z,3.53
2022-10-11T00:14:25.035Z,3.60
2022-10-11T00:17:26.864Z,3.47
2022-10-11T00:20:28.784Z,3.43
2022-10-11T00:23:30.691Z,2.90
2022-10-11T00:26:32.573Z,3.40
2022-10-11T00:29:34.495Z,3.70
2022-10-11T00:32:36.932Z,3.53
2022-10-11T00:35:41.619Z,3.30
2022-10-11T00:38:44.407Z,4.00
2022-10-11T00:44:50.217Z,3.72
2022-10-11T00:47:55.480Z,3.30
2022-10-11T00:50:58.272Z,3.35
2022-10-11T00:54:00.130Z,3.63
2022-10-11T00:57:04.931Z,3.70
2022-10-11T01:00:07.927Z,2.95
2022-10-11T01:03:09.776Z,4.10
2022-10-11T01:06:11.568Z,3.42
2022-10-11T01:09:13.433Z,3.67
2022-10-11T01:12:18.305Z,3.77
2022-10-11T01:15:40.072Z,3.75
2022-10-11T01:18:44.957Z,3.78
2022-10-11T01:22:18.943Z,4.00
2022-10-11T01:25:27.035Z,3.40
2022-10-11T01:28:51.607Z,3.88
2022-10-11T01:32:11.533Z,3.85
2022-10-11T01:35:26.367Z,3.70
2022-10-11T01:38:43.111Z,3.72
2022-10-11T01:41:47.340Z,3.45
2022-10-11T01:44:49.384Z,3.40
2022-10-11T01:48:02.407Z,4.20
2022-10-11T01:54:56.494Z,4.30
2022-10-11T01:58:02.156Z,3.60
2022-10-11T02:01:08.530Z,3.88
2022-10-11T02:04:14.616Z,5.68
2022-10-11T02:07:38.792Z,4.80
2022-10-11T02:10:54.518Z,3.78
2022-10-11T02:14:02.101Z,4.15
2022-10-11T02:17:07.887Z,3.75
2022-10-11T02:20:13.203Z,3.70
2022-10-11T02:23:25.855Z,3.90
2022-10-11T02:26:29.194Z,3.45
2022-10-11T02:29:32.847Z,3.67
2022-10-11T02:32:34.757Z,3.22
2022-10-11T02:35:39.198Z,3.35
2022-10-11T02:38:45.037Z,2.83
2022-10-11T02:41:46.862Z,3.35
2022-10-11T02:44:53.687Z,3.63
2022-10-11T02:47:55.513Z,3.63
2022-10-11T02:50:57.812Z,3.35
2022-10-11T02:53:59.774Z,3.33
2022-10-11T02:57:01.596Z,3.47
2022-10-11T03:00:04.434Z,4.20
2022-10-11T03:06:08.328Z,3.78
2022-10-11T03:09:10.524Z,3.20
2022-10-11T03:12:12.359Z,3.80
2022-10-11T03:15:14.156Z,3.70
2022-10-11T03:18:16.141Z,3.78
2022-10-11T03:21:18.520Z,3.70
2022-10-11T03:24:20.376Z,3.50
2022-10-11T03:27:22.156Z,3.50
2022-10-11T03:30:24.091Z,3.50
2022-10-11T03:33:25.945Z,3.23
2022-10-11T03:36:27.756Z,3.05
2022-10-11T03:39:29.566Z,3.50
2022-10-11T03:42:31.381Z,3.20
2022-10-11T03:45:33.206Z,3.40
2022-10-11T03:48:35.064Z,4.22
2022-10-11T03:51:36.876Z,3.80
2022-10-11T03:54:38.755Z,4.03
2022-10-11T03:57:40.609Z,3.80
2022-10-11T04:00:42.500Z,3.70
2022-10-11T04:03:44.351Z,3.33
2022-10-11T04:06:46.247Z,3.17
2022-10-11T04:09:48.466Z,3.20
2022-10-11T04:12:50.300Z,3.20
2022-10-11T04:15:52.116Z,3.00
2022-10-11T04:18:54.024Z,2.80
2022-10-11T04:21:55.877Z,3.47
2022-10-11T04:24:58.163Z,3.07
2022-10-11T04:27:59.992Z,3.00
2022-10-11T04:31:03.145Z,3.60
2022-10-11T04:34:04.931Z,3.80
2022-10-11T04:37:06.809Z,3.80
2022-10-11T04:40:09.230Z,3.40
2022-10-11T04:43:11.088Z,4.07
2022-10-11T04:46:12.939Z,4.33
2022-10-11T04:49:14.928Z,3.65
2022-10-11T04:52:16.727Z,3.97
2022-10-11T04:55:18.625Z,3.85
2022-10-11T04:58:20.440Z,3.65
2022-10-11T05:01:22.223Z,3.35
2022-10-11T05:04:24.048Z,3.45
2022-10-11T05:07:25.857Z,4.00
2022-10-11T05:10:27.667Z,3.10
2022-10-11T05:13:29.559Z,3.70
2022-10-11T05:16:31.419Z,3.85
2022-10-11T05:19:33.267Z,3.53
2022-10-11T05:22:35.190Z,3.95
2022-10-11T05:25:37.117Z,3.87
2022-10-11T05:28:38.999Z,3.70
2022-10-11T05:31:40.848Z,3.22
2022-10-11T05:34:42.658Z,3.13
2022-10-11T05:37:44.531Z,3.40
2022-10-11T05:40:46.366Z,3.70
2022-10-11T05:43:48.174Z,3.38
2022-10-11T05:46:50.031Z,3.92
2022-10-11T05:49:51.898Z,4.15
2022-10-11T05:52:53.921Z,3.47
2022-10-11T05:55:55.777Z,3.40
2022-10-11T05:59:02.043Z,3.60
2022-10-11T06:02:04.265Z,3.80
2022-10-11T06:05:06.339Z,3.75
2022-10-11T06:08:08.822Z,4.43
2022-10-11T06:11:22.096Z,3.83
2022-10-11T06:14:24.251Z,3.40
2022-10-11T06:17:26.109Z,3.53
2022-10-11T06:20:27.998Z,3.90
2022-10-11T06:23:29.943Z,3.47
2022-10-11T06:26:31.812Z,3.80
2022-10-11T06:29:34.175Z,3.20
2022-10-11T06:32:36.012Z,3.53
2022-10-11T06:35:37.844Z,3.58
2022-10-11T06:38:44.793Z,3.55
2022-10-11T06:41:47.193Z,3.50
2022-10-11T06:44:49.041Z,3.47
2022-10-11T06:47:50.884Z,3.77
2022-10-11T06:51:00.098Z,4.00
2022-10-11T06:54:02.330Z,2.70
2022-10-11T06:57:04.132Z,3.65
2022-10-11T07:00:10.330Z,3.00
2022-10-11T07:03:14.400Z,3.03
2022-10-11T07:06:23.117Z,3.30
2022-10-11T07:09:25.002Z,3.78
2022-10-11T07:12:26.835Z,3.53
2022-10-11T07:15:28.676Z,3.67
2022-10-11T07:18:30.619Z,3.78
2022-10-11T07:21:33.278Z,3.97
2022-10-11T07:24:35.116Z,3.33
2022-10-11T07:27:37.000Z,3.40
2022-10-11T07:30:40.066Z,3.30
2022-10-11T07:33:41.898Z,5.18
2022-10-11T07:36:43.726Z,5.20
2022-10-11T07:39:45.761Z,3.80
2022-10-11T07:42:47.611Z,4.47
2022-10-11T07:45:53.066Z,4.53
2022-10-11T07:48:54.896Z,4.22
2022-10-11T07:51:56.782Z,3.63
2022-10-11T07:54:58.609Z,4.30
2022-10-11T07:58:00.434Z,3.87
2022-10-11T08:01:02.313Z,3.43
2022-10-11T08:04:04.312Z,3.90
2022-10-11T08:07:06.301Z,3.95
2022-10-11T08:10:08.830Z,3.95
2022-10-11T08:13:10.687Z,4.18
2022-10-11T08:16:13.120Z,5.35
2022-10-11T08:19:15.090Z,13.73
2022-10-11T08:25:18.690Z,4.43
2022-10-11T08:31:22.971Z,6.05
2022-10-11T08:34:24.784Z,4.47
2022-10-11T08:37:26.678Z,3.75
2022-10-11T08:40:32.796Z,4.68
2022-10-11T08:43:46.471Z,5.15
2022-10-11T08:46:50.803Z,4.32
2022-10-11T08:49:52.733Z,4.13
2022-10-11T08:53:06.604Z,4.07
2022-10-11T08:56:09.253Z,3.58
2022-10-11T08:59:11.434Z,3.05
2022-10-11T09:02:22.298Z,3.38
2022-10-11T09:05:25.554Z,3.05
2022-10-11T09:08:59.260Z,3.20
2022-10-11T09:12:13.893Z,3.10
2022-10-11T09:15:27.715Z,3.70
2022-10-11T09:18:42.890Z,3.15
2022-10-11T09:22:00.954Z,2.88
2022-10-11T09:25:21.183Z,2.80
2022-10-11T09:29:20.496Z,2.90
2022-10-11T09:32:22.432Z,3.63
2022-10-11T09:35:24.493Z,3.45
2022-10-11T09:38:43.733Z,3.33
2022-10-11T09:42:08.130Z,2.88
2022-10-11T09:45:28.211Z,3.13
2022-10-11T09:48:38.763Z,2.90
2022-10-11T09:51:42.950Z,3.25
2022-10-11T09:54:52.794Z,2.80
2022-10-11T09:57:54.935Z,3.40
2022-10-11T10:01:07.982Z,3.47
2022-10-11T10:04:12.258Z,3.30
2022-10-11T10:07:15.145Z,3.58
2022-10-11T10:10:30.149Z,3.22
2022-10-11T10:13:45.721Z,3.33
2022-10-11T10:16:47.549Z,3.42
2022-10-11T10:19:53.487Z,4.45
2022-10-11T10:22:55.328Z,3.20
2022-10-11T10:26:20.214Z,3.00
2022-10-11T10:29:22.021Z,2.58
2022-10-11T10:32:27.982Z,3.13
2022-10-11T10:35:30.097Z,2.53
2022-10-11T10:38:42.100Z,2.45
2022-10-11T10:41:43.955Z,2.90
2022-10-11T10:44:53.154Z,2.67
2022-10-11T10:48:16.580Z,2.80
2022-10-11T10:51:40.377Z,2.78
2022-10-11T10:54:54.101Z,2.65
2022-10-11T10:58:06.433Z,2.60
2022-10-11T11:01:13.780Z,2.70
2022-10-11T11:04:27.721Z,2.70
2022-10-11T11:07:35.292Z,2.85
2022-10-11T11:10:39.557Z,2.75
2022-10-11T11:13:43.468Z,2.60
2022-10-11T11:17:08.020Z,2.50
2022-10-11T11:20:31.884Z,2.38
2022-10-11T11:23:45.894Z,2.47
2022-10-11T11:27:01.079Z,2.58
2022-10-11T11:30:02.881Z,2.78
2022-10-11T11:33:32.568Z,2.50
2022-10-11T11:36:42.357Z,2.67
2022-10-11T11:39:47.697Z,2.85
2022-10-11T11:42:54.570Z,2.15
2022-10-11T11:46:18.827Z,2.30
2022-10-11T11:49:24.800Z,3.20
2022-10-11T11:52:37.226Z,2.42
2022-10-11T11:58:49.781Z,2.28
2022-10-11T12:02:29.034Z,2.50
2022-10-11T12:05:33.172Z,2.40
2022-10-11T12:08:35.067Z,2.58
2022-10-11T12:11:36.895Z,2.38
2022-10-11T12:14:39.966Z,2.97
2022-10-11T12:17:57.421Z,2.70
2022-10-11T12:21:07.486Z,2.63
2022-10-11T12:24:19.627Z,2.50
2022-10-11T12:27:37.564Z,2.95
2022-10-11T12:30:48.353Z,2.58
2022-10-11T12:34:03.115Z,2.63
2022-10-11T12:37:20.342Z,2.60
2022-10-11T12:40:41.886Z,2.55
2022-10-11T12:43:50.003Z,2.57
2022-10-11T12:46:53.653Z,2.20
2022-10-11T12:50:04.061Z,2.83
2022-10-11T12:53:27.381Z,2.75
2022-10-11T12:56:38.200Z,2.65
2022-10-11T12:59:46.215Z,2.60
2022-10-11T13:02:48.387Z,2.83
2022-10-11T13:06:04.720Z,2.22
2022-10-11T13:09:09.611Z,2.60
2022-10-11T13:12:21.602Z,2.28
2022-10-11T13:15:24.472Z,2.60
2022-10-11T13:18:29.120Z,2.40
2022-10-11T13:21:33.188Z,2.63
2022-10-11T13:24:38.941Z,2.40
2022-10-11T13:27:40.773Z,2.50
2022-10-11T13:30:43.956Z,2.83
2022-10-11T13:33:45.856Z,2.58
2022-10-11T13:39:51.188Z,2.75
2022-10-11T13:42:53.478Z,2.30
2022-10-11T13:45:56.003Z,2.60
2022-10-11T13:49:06.696Z,2.30
2022-10-11T13:52:24.333Z,2.13
2022-10-11T13:55:47.783Z,2.50
2022-10-11T13:58:49.594Z,2.17
2022-10-11T14:02:00.203Z,2.53
2022-10-11T14:05:02.071Z,2.40
2022-10-11T14:08:19.795Z,2.17
2022-10-11T14:11:36.117Z,2.03
2022-10-11T14:14:41.796Z,1.95
2022-10-11T14:17:45.034Z,2.35
2022-10-11T14:20:46.891Z,2.22
2022-10-11T14:24:00.214Z,2.50
2022-10-11T14:27:03.945Z,2.47
2022-10-11T14:30:27.463Z,2.40
2022-10-11T14:33:29.688Z,2.42
2022-10-11T14:36:31.706Z,2.60
2022-10-11T14:42:35.417Z,2.45
2022-10-11T14:45:37.264Z,2.50
2022-10-11T14:48:55.900Z,2.35
2022-10-11T14:51:58.450Z,2.58
2022-10-11T14:55:01.024Z,3.28
2022-10-11T14:58:03.240Z,3.50
2022-10-11T15:01:05.242Z,3.20
2022-10-11T15:07:11.867Z,3.03
2022-10-11T15:10:19.744Z,2.75
2022-10-11T15:13:22.638Z,2.97
2022-10-11T15:16:25.390Z,2.85
2022-10-11T15:19:27.278Z,2.85
2022-10-11T15:22:29.376Z,2.47
2022-10-11T15:25:31.276Z,2.40
2022-10-11T15:28:33.327Z,3.00
2022-10-11T15:31:35.196Z,2.85
2022-10-11T15:34:37.074Z,2.58
2022-10-11T15:37:39.200Z,2.97
2022-10-11T15:40:41.024Z,2.92
2022-10-11T15:43:43.588Z,2.50
2022-10-11T15:46:46.065Z,3.03
2022-10-11T15:49:47.941Z,2.58
2022-10-11T15:52:52.933Z,2.80
2022-10-11T15:55:56.423Z,2.70
2022-10-11T15:58:58.533Z,2.90
2022-10-11T16:02:00.470Z,3.10
2022-10-11T16:05:02.392Z,3.20
2022-10-11T16:08:04.332Z,2.95
2022-10-11T16:11:06.670Z,2.95
2022-10-11T16:17:10.397Z,3.55
2022-10-11T16:20:12.361Z,3.42
2022-10-11T16:23:14.409Z,3.38
2022-10-11T16:26:16.637Z,2.85
2022-10-11T16:29:18.602Z,2.70
2022-10-11T16:32:20.585Z,3.50
2022-10-11T16:35:22.444Z,3.55
2022-10-11T16:38:24.312Z,3.60
2022-10-11T16:41:26.120Z,3.38
2022-10-11T16:44:28.040Z,3.85
2022-10-11T16:47:29.942Z,3.75
2022-10-11T16:50:35.550Z,3.53
2022-10-11T16:53:40.305Z,4.00
2022-10-11T16:56:42.157Z,5.07
2022-10-11T16:59:44.052Z,4.95
2022-10-11T17:02:45.929Z,5.18
2022-10-11T17:05:47.768Z,5.10
2022-10-11T17:08:49.600Z,5.15
2022-10-11T17:11:51.526Z,5.18
2022-10-11T17:14:53.568Z,5.07
2022-10-11T17:17:55.833Z,4.45
2022-10-11T17:21:07.907Z,4.10
2022-10-11T17:24:09.952Z,4.43
2022-10-11T17:27:11.844Z,4.50
2022-10-11T17:30:13.838Z,4.10
2022-10-11T17:33:15.679Z,4.35
2022-10-11T17:36:43.879Z,4.32
2022-10-11T17:39:45.801Z,4.50
2022-10-11T17:42:47.800Z,3.95
2022-10-11T17:45:56.610Z,4.28
2022-10-11T17:48:59.344Z,3.92
2022-10-11T17:52:01.188Z,4.05
2022-10-11T17:55:03.080Z,4.70
2022-10-11T17:58:04.935Z,4.60
2022-10-11T18:01:15.229Z,4.50
2022-10-11T18:04:18.304Z,4.75
2022-10-11T18:07:20.113Z,4.30
2022-10-11T18:10:22.052Z,4.57
2022-10-11T18:13:23.970Z,5.25
2022-10-11T18:16:27.138Z,5.15
2022-10-11T18:19:29.071Z,5.40
2022-10-11T18:22:30.926Z,7.43
2022-10-11T18:25:35.815Z,6.32
2022-10-11T18:28:37.758Z,7.88
2022-10-11T18:31:39.751Z,6.75
2022-10-11T18:34:41.690Z,6.57
2022-10-11T18:37:43.568Z,6.50
2022-10-11T18:40:47.278Z,6.07
2022-10-11T18:43:52.481Z,6.25
2022-10-11T18:46:54.449Z,5.32
2022-10-11T18:49:56.632Z,5.63
2022-10-11T18:52:58.549Z,5.72
2022-10-11T18:56:01.488Z,5.43
2022-10-11T18:59:04.216Z,6.00
2022-10-11T19:05:08.210Z,4.60
2022-10-11T19:08:10.036Z,4.57
2022-10-11T19:11:12.977Z,4.37
2022-10-11T19:14:16.019Z,4.47
2022-10-11T19:17:22.537Z,4.78
2022-10-11T19:20:24.429Z,4.28
2022-10-11T19:23:26.268Z,4.80
2022-10-11T19:26:35.529Z,4.60
2022-10-11T19:29:37.891Z,5.65
2022-10-11T19:32:39.709Z,6.40
2022-10-11T19:35:42.390Z,7.30
2022-10-11T19:41:47.352Z,6.22
2022-10-11T19:44:49.173Z,5.80
2022-10-11T19:47:51.031Z,6.10
2022-10-11T19:50:52.883Z,4.97
2022-10-11T19:53:59.076Z,5.50
2022-10-11T19:57:00.888Z,4.65
2022-10-11T20:00:02.736Z,4.53
2022-10-11T20:03:06.379Z,4.28
2022-10-11T20:06:08.367Z,4.80
2022-10-11T20:09:28.571Z,5.25
2022-10-11T20:12:32.151Z,4.90
2022-10-11T20:15:37.588Z,6.80
2022-10-11T20:18:39.576Z,7.40
2022-10-11T20:21:42.008Z,6.67
2022-10-11T20:24:43.812Z,7.28
2022-10-11T20:27:46.442Z,6.97
2022-10-11T20:30:48.231Z,6.32
2022-10-11T20:33:50.139Z,6.87
2022-10-11T20:36:52.283Z,7.07
2022-10-11T20:39:54.131Z,7.57
2022-10-11T20:42:55.985Z,6.63
2022-10-11T20:46:01.887Z,6.63
2022-10-11T20:49:05.725Z,5.60
2022-10-11T20:52:07.591Z,4.78
2022-10-11T20:55:09.499Z,4.97
2022-10-11T20:58:11.315Z,5.38
2022-10-11T21:01:15.223Z,5.47
2022-10-11T21:04:18.802Z,5.47
2022-10-11T21:07:20.684Z,5.45
2022-10-11T21:10:22.572Z,7.30
2022-10-11T21:13:24.431Z,4.37
2022-10-11T21:16:26.999Z,4.97
2022-10-11T21:19:28.836Z,5.32
2022-10-11T21:22:31.794Z,4.40
2022-10-11T21:25:34.315Z,4.05
2022-10-11T21:28:36.377Z,3.80
2022-10-11T21:31:38.258Z,4.28
2022-10-11T21:34:40.474Z,3.40
2022-10-11T21:37:42.462Z,3.70
2022-10-11T21:40:44.303Z,4.93
2022-10-11T21:43:46.471Z,4.10
2022-10-11T21:47:05.906Z,3.85
2022-10-11T21:50:08.966Z,3.95
2022-10-11T21:53:10.793Z,4.70
2022-10-11T21:56:12.647Z,4.23
2022-10-11T21:59:14.630Z,4.67
2022-10-11T22:02:16.584Z,4.28
2022-10-11T22:05:18.800Z,4.85
2022-10-11T22:08:20.735Z,4.43
2022-10-11T22:11:22.638Z,4.40
2022-10-11T22:14:24.651Z,4.67
2022-10-11T22:17:26.472Z,4.45
2022-10-11T22:20:28.303Z,5.57
2022-10-11T22:23:30.127Z,5.43
2022-10-11T22:26:34.182Z,6.57
2022-10-11T22:29:35.970Z,4.78
2022-10-11T22:32:38.071Z,4.70
2022-10-11T22:35:40.035Z,4.68
2022-10-11T22:38:42.296Z,5.23
2022-10-11T22:41:44.107Z,5.10
2022-10-11T22:44:45.969Z,5.57
2022-10-11T22:47:47.780Z,5.47
2022-10-11T22:50:49.644Z,5.07
2022-10-11T22:53:51.470Z,5.17
2022-10-11T22:56:53.310Z,4.93
2022-10-11T22:59:55.132Z,4.57
2022-10-11T23:02:57.003Z,5.17
2022-10-11T23:05:58.836Z,4.07
2022-10-11T23:09:00.749Z,4.27
2022-10-11T23:12:02.551Z,4.60
2022-10-11T23:15:04.676Z,4.67
2022-10-11T23:18:06.492Z,4.50
2022-10-11T23:21:08.395Z,4.00
2022-10-11T23:24:10.681Z,4.40
2022-10-11T23:27:12.517Z,4.65
2022-10-11T23:30:14.421Z,3.73
2022-10-11T23:33:16.268Z,4.00
2022-10-11T23:36:19.685Z,4.30
2022-10-11T23:39:21.593Z,4.00
2022-10-11T23:42:23.384Z,3.90
2022-10-11T23:45:25.268Z,4.20
2022-10-11T23:48:27.065Z,4.50
2022-10-11T23:51:28.917Z,4.73
2022-10-11T23:54:30.790Z,3.53
2022-10-11T23:57:32.626Z,4.20
